WADD Airport Information

Runway Information
Runway 09 Length 9790 ft width 148 ft
Elevation 11 ft Threshold ft Heading 88
Runway 27 Length 9790 ft Width 148 ft
Elevation 12 ft Threshold ft Heading 268
Airport Frequencies
Type APP Name DIRECTOR Frequency 119.7 MHZ
Type ATIS Name ATIS Frequency 126.2 MHZ
Type GND Name NGURAH GND Frequency 118.8 MHZ
Type INFO Name INFO Frequency 8.88 MHZ
Type TMA Name RADAR Frequency 119.3 MHZ
Type TWR Name NGURAH TWR Frequency 118.1 MHZ
Airport Navaids
Type VOR-DME Name Bali Frequency 116200 KHZ
Type NDB Name Bali Frequency 230 KHZ
Airport Weather Information & NOTAM
ADDS - METARS form results

(0624 UTC 30 June 2022)
Data provider http://aviationweather.gov/metar/data/
 
METAR text: WADD 300600Z 12016KT 9999 SCT016 29/25 Q1008 NOSIG
Conditions at: WADD (BALI INTL , ID) observed 0600 UTC 30 June 2022
Temperature: 29.0°C (84°F)
Dewpoint: 25.0°C (77°F) [RH = 79%]
Pressure (altimeter): 29.76 inches Hg (1008.0 mb)
Winds: from the ESE (120 degrees) at 18 MPH (16 knots; 8.2 m/s)
Visibility: 6 or more miles (10+ km)
Ceiling: at least 12,000 feet AGL
Clouds: scattered clouds at 1600 feet AGL
Weather: no significant weather observed at this time

METAR text: WADD 300530Z 11017KT 9999 SCT016 29/25 Q1008 NOSIG
Conditions at: WADD (BALI INTL , ID) observed 0530 UTC 30 June 2022
Temperature: 29.0°C (84°F)
Dewpoint: 25.0°C (77°F) [RH = 79%]
Pressure (altimeter): 29.76 inches Hg (1008.0 mb)
Winds: from the ESE (110 degrees) at 20 MPH (17 knots; 8.7 m/s)
Visibility: 6 or more miles (10+ km)
Ceiling: at least 12,000 feet AGL
Clouds: scattered clouds at 1600 feet AGL
Weather: no significant weather observed at this time

Forecast for: WADD (BALI INTL , ID)
Text: TAF WADD 300500Z 3006/0106 12013KT 9999 SCT016
Forecast period: 0600 UTC 30 June 2022 to 0600 UTC 01 July 2022
Forecast type: FROM: standard forecast or significant change
Winds: from the ESE (120 degrees) at 15 MPH (13 knots; 6.7 m/s)
Visibility: 6 or more miles (10+ km)
Ceiling: at least 12,000 feet AGL
Clouds: scattered clouds at 1600 feet AGL
Weather: no significant weather forecast for this period
Text: TEMPO 3018/3022 5000 RA BKN014
Forecast period: 1800 to 2200 UTC 30 June 2022
Forecast type: TEMPORARY: The following changes expected for less than half the time period
Visibility: 3 miles (5 km)
Ceiling: 1400 feet AGL
Clouds: broken clouds at 1400 feet AGL
Weather: RA  (moderate rain)